Time;durP1;ratioP1;P1;durP2;ratioP2;P2;SDS_P1;SDS_P2;PMS_P1;PMS_P2;Temp;Humidity;BMP_temperature;BMP_pressure;BME280_temperature;BME280_humidity;BME280_pressure;Samples;Min_cycle;Max_cycle;Signal;HPM_P1;HPM_P2
2023/09/24 00:02:19;;;;;;;10.52;4.60;;;;;;;24.61;56.29;99398.13;4841883;29;20034;-42
2023/09/24 00:04:44;;;;;;;7.93;4.47;;;;;;;24.50;56.67;99397.50;4841578;29;20058;-44
2023/09/24 00:07:10;;;;;;;13.02;4.88;;;;;;;24.34;57.10;99410.63;4841896;29;20114;-43
2023/09/24 00:09:36;;;;;;;10.85;4.70;;;;;;;24.25;57.55;99409.72;4842007;29;20171;-41
2023/09/24 00:12:02;;;;;;;10.77;4.90;;;;;;;24.25;57.63;99396.13;4841960;29;20066;-44
2023/09/24 00:14:30;;;;;;;11.02;4.82;;;;;;;24.39;57.12;99397.72;4841830;29;20033;-41
2023/09/24 00:16:56;;;;;;;10.38;4.82;;;;;;;24.44;56.86;99404.16;4841512;29;20159;-45
2023/09/24 00:19:21;;;;;;;8.75;4.68;;;;;;;24.33;57.22;99404.38;4842052;29;20030;-41
2023/09/24 00:21:47;;;;;;;10.90;5.10;;;;;;;24.41;57.13;99405.59;4841651;29;20046;-42
2023/09/24 00:24:13;;;;;;;11.80;4.72;;;;;;;24.43;57.13;99399.81;4841364;29;20036;-43
2023/09/24 00:26:38;;;;;;;8.48;4.93;;;;;;;24.51;56.91;99407.28;4841266;29;20559;-41
2023/09/24 00:29:04;;;;;;;9.68;5.07;;;;;;;24.31;57.69;99403.88;4841726;29;20034;-40
2023/09/24 00:31:30;;;;;;;9.23;5.07;;;;;;;24.17;57.89;99405.78;4841582;29;20399;-43
2023/09/24 00:33:57;;;;;;;8.82;4.97;;;;;;;24.26;57.93;99403.19;4841638;29;20026;-42
2023/09/24 00:36:22;;;;;;;8.38;5.00;;;;;;;24.03;58.54;99405.78;4841661;29;20407;-44
2023/09/24 00:38:49;;;;;;;9.73;5.18;;;;;;;24.16;58.25;99410.44;4841738;29;20037;-42
2023/09/24 00:41:15;;;;;;;9.00;5.03;;;;;;;24.10;58.44;99410.81;4841301;29;20487;-42
2023/09/24 00:43:43;;;;;;;12.30;5.07;;;;;;;23.83;59.27;99412.41;4841318;29;20082;-43
2023/09/24 00:46:11;;;;;;;12.85;5.15;;;;;;;23.97;58.85;99418.66;4841104;29;20121;-45
2023/09/24 00:48:37;;;;;;;11.93;4.88;;;;;;;24.19;58.06;99420.69;4840899;29;20033;-40
2023/09/24 00:51:26;;;;;;;9.57;5.47;;;;;;;24.02;58.64;99416.94;4841005;29;20098;-44
2023/09/24 00:53:53;;;;;;;12.70;5.32;;;;;;;24.06;58.80;99424.19;4841127;29;20038;-45
2023/09/24 00:56:18;;;;;;;8.77;4.93;;;;;;;23.92;59.08;99431.53;4841083;29;20041;-42
2023/09/24 00:58:47;;;;;;;11.32;4.90;;;;;;;23.82;59.44;99432.53;4841069;29;20026;-42
2023/09/24 01:01:13;;;;;;;7.97;5.05;;;;;;;23.71;59.75;99434.59;4840706;29;20061;-41
2023/09/24 01:03:40;;;;;;;8.18;5.28;;;;;;;23.59;60.13;99434.25;4841093;29;20037;-44
2023/09/24 01:06:06;;;;;;;11.43;5.30;;;;;;;23.37;61.09;99432.97;4840905;29;20033;-42
2023/09/24 01:08:33;;;;;;;10.05;5.32;;;;;;;23.32;61.24;99426.81;4840688;29;20102;-46
2023/09/24 01:11:00;;;;;;;9.63;5.38;;;;;;;23.45;60.93;99438.81;4840599;29;20472;-42
2023/09/24 01:13:37;;;;;;;9.65;5.28;;;;;;;23.27;61.61;99433.13;4840873;29;20072;-42
2023/09/24 01:16:04;;;;;;;9.38;5.22;;;;;;;23.51;60.83;99440.34;4840858;29;20061;-43
2023/09/24 01:18:31;;;;;;;9.52;5.05;;;;;;;23.75;60.10;99442.94;4840966;29;20057;-43
2023/09/24 01:20:56;;;;;;;10.50;5.85;;;;;;;23.59;60.41;99443.19;4840354;29;20030;-42
2023/09/24 01:23:22;;;;;;;11.82;5.70;;;;;;;23.20;61.78;99435.41;4840473;29;20026;-42
2023/09/24 01:25:48;;;;;;;11.07;5.55;;;;;;;23.03;62.28;99438.63;4840485;29;20038;-44
2023/09/24 01:28:14;;;;;;;10.80;5.38;;;;;;;23.23;61.48;99438.34;4851171;29;20029;-42
2023/09/24 01:30:40;;;;;;;8.55;5.47;;;;;;;23.10;61.97;99438.28;4858710;29;20536;-42
2023/09/24 01:33:05;;;;;;;10.73;5.10;;;;;;;22.98;62.23;99423.22;4854065;29;20029;-45
2023/09/24 01:35:33;;;;;;;9.95;5.60;;;;;;;22.98;62.37;99427.81;4844697;29;20029;-45
2023/09/24 01:38:06;;;;;;;12.68;5.35;;;;;;;22.81;63.21;99425.63;4859031;29;20049;-42
2023/09/24 01:40:38;;;;;;;11.93;5.68;;;;;;;22.78;63.15;99415.38;4858663;29;20029;-42
2023/09/24 01:43:10;;;;;;;8.20;5.30;;;;;;;22.50;63.95;99422.50;4858878;29;20348;-42
2023/09/24 01:45:39;;;;;;;9.32;5.88;;;;;;;22.62;63.93;99428.34;4858867;29;20112;-42
2023/09/24 01:48:05;;;;;;;11.50;5.40;;;;;;;22.88;62.84;99431.47;4858580;29;20036;-42
2023/09/24 01:50:36;;;;;;;9.98;5.60;;;;;;;23.00;62.40;99431.88;4858964;29;20037;-42
2023/09/24 01:53:03;;;;;;;8.80;5.35;;;;;;;22.89;62.74;99429.59;4858769;29;20085;-43
2023/09/24 01:55:29;;;;;;;8.10;5.53;;;;;;;22.74;63.07;99428.69;4858457;29;20570;-40
2023/09/24 01:57:56;;;;;;;12.27;5.55;;;;;;;22.97;62.32;99429.72;4858447;29;20081;-40
2023/09/24 02:00:25;;;;;;;10.85;5.60;;;;;;;23.13;61.51;99437.69;4857640;29;20057;-44
2023/09/24 02:02:57;;;;;;;10.52;5.53;;;;;;;23.10;61.55;99449.13;4858394;29;20182;-42
2023/09/24 02:05:23;;;;;;;15.13;5.47;;;;;;;23.08;61.77;99443.19;4859216;29;20230;-40
2023/09/24 02:07:49;;;;;;;11.07;5.30;;;;;;;23.07;61.74;99447.81;4859667;29;20553;-42
2023/09/24 02:10:18;;;;;;;9.18;5.25;;;;;;;22.89;62.30;99446.69;4859171;29;20032;-43
2023/09/24 02:12:45;;;;;;;10.82;5.45;;;;;;;22.72;62.63;99430.09;4858947;29;20033;-42
2023/09/24 02:15:12;;;;;;;13.02;5.43;;;;;;;22.64;62.98;99439.69;4859054;29;20037;-43
2023/09/24 02:17:39;;;;;;;9.02;5.50;;;;;;;22.67;62.90;99433.66;4858778;29;20497;-42
2023/09/24 02:20:20;;;;;;;10.07;6.20;;;;;;;22.72;63.08;99432.81;4858640;29;20037;-42
2023/09/24 02:22:48;;;;;;;11.35;5.50;;;;;;;22.70;63.17;99432.28;4859343;29;20030;-44
2023/09/24 02:25:14;;;;;;;12.45;5.82;;;;;;;22.31;64.63;99425.16;4858727;29;20454;-41
2023/09/24 02:27:42;;;;;;;8.70;5.65;;;;;;;22.36;64.13;99415.06;4858943;29;20040;-41
2023/09/24 02:30:13;;;;;;;10.27;5.68;;;;;;;22.40;64.03;99426.94;4858622;29;20447;-41
2023/09/24 02:32:39;;;;;;;9.40;5.38;;;;;;;22.35;64.21;99431.63;4858618;29;20042;-42
2023/09/24 02:35:08;;;;;;;8.52;5.60;;;;;;;22.38;64.53;99428.34;4858836;29;20030;-45
2023/09/24 02:37:33;;;;;;;10.18;6.00;;;;;;;22.22;64.89;99428.50;4859184;29;20053;-43
2023/09/24 02:39:59;;;;;;;11.65;6.25;;;;;;;22.44;64.14;99433.41;4858989;29;20108;-44
2023/09/24 02:42:25;;;;;;;11.93;5.70;;;;;;;22.44;64.27;99432.59;4858770;29;20017;-46
2023/09/24 02:44:50;;;;;;;16.13;6.32;;;;;;;22.16;65.04;99437.78;4858325;29;20048;-44
2023/09/24 02:47:16;;;;;;;11.23;6.00;;;;;;;22.14;65.19;99439.97;4858853;29;20025;-41
2023/09/24 02:49:42;;;;;;;8.80;5.47;;;;;;;22.17;65.20;99452.13;4858677;29;20033;-42
2023/09/24 02:52:08;;;;;;;10.57;5.70;;;;;;;22.30;64.65;99443.34;4858032;29;20177;-41
2023/09/24 02:54:34;;;;;;;11.73;6.00;;;;;;;22.27;64.81;99449.31;4858717;29;20061;-43
2023/09/24 02:56:59;;;;;;;10.95;6.03;;;;;;;22.33;64.58;99439.25;4858795;29;20052;-41
2023/09/24 02:59:25;;;;;;;12.07;6.03;;;;;;;22.41;64.04;99446.75;4858831;29;20474;-41
2023/09/24 03:01:52;;;;;;;8.02;5.47;;;;;;;22.28;64.89;99439.31;4858852;29;20077;-43
2023/09/24 03:04:18;;;;;;;10.38;5.80;;;;;;;22.20;64.77;99440.69;4858602;29;20037;-43
2023/09/24 03:06:44;;;;;;;11.10;5.90;;;;;;;22.02;65.62;99444.97;4858967;29;20100;-44
2023/09/24 03:09:12;;;;;;;9.63;5.72;;;;;;;22.22;65.29;99450.19;4859085;29;20423;-42
2023/09/24 03:11:37;;;;;;;8.70;5.50;;;;;;;22.09;65.75;99447.34;4861131;29;20061;-40
2023/09/24 03:14:03;;;;;;;9.18;5.70;;;;;;;22.23;65.48;99451.78;4861903;29;20076;-41
2023/09/24 03:16:29;;;;;;;9.40;5.57;;;;;;;22.39;64.49;99449.75;4861862;29;20041;-43
2023/09/24 03:18:55;;;;;;;11.75;5.80;;;;;;;22.36;64.76;99444.09;4862142;29;20486;-43
2023/09/24 03:21:21;;;;;;;11.00;5.57;;;;;;;22.33;64.88;99453.63;4861670;29;20576;-41
2023/09/24 03:23:46;;;;;;;12.02;5.70;;;;;;;22.29;65.12;99451.75;4861908;29;20025;-40
2023/09/24 03:26:15;;;;;;;13.85;5.70;;;;;;;22.15;65.32;99454.31;4861727;29;20036;-40
2023/09/24 03:28:41;;;;;;;11.70;5.85;;;;;;;22.31;64.95;99463.91;4861593;29;20500;-42
2023/09/24 03:31:15;;;;;;;8.63;5.50;;;;;;;22.29;64.73;99457.97;4861447;29;20108;-40
2023/09/24 03:33:41;;;;;;;9.80;6.03;;;;;;;22.33;64.64;99466.34;4855441;29;20018;-44
2023/09/24 03:36:10;;;;;;;13.77;6.05;;;;;;;22.17;64.91;99455.63;4843368;29;20109;-41
2023/09/24 03:38:38;;;;;;;11.17;5.77;;;;;;;22.12;65.61;99463.81;4843158;29;20025;-41
2023/09/24 03:41:03;;;;;;;14.93;5.93;;;;;;;22.02;66.07;99463.94;4843013;29;20148;-42
2023/09/24 03:43:29;;;;;;;10.27;5.90;;;;;;;21.93;66.08;99466.44;4842808;29;20105;-45
2023/09/24 03:45:55;;;;;;;9.98;5.85;;;;;;;21.86;66.85;99458.66;4843353;29;20049;-40
2023/09/24 03:48:23;;;;;;;11.15;6.18;;;;;;;22.15;65.65;99462.44;4842800;29;20471;-40
2023/09/24 03:50:49;;;;;;;10.18;6.13;;;;;;;22.11;65.81;99473.06;4842825;29;20042;-41
2023/09/24 03:53:17;;;;;;;11.55;6.57;;;;;;;21.95;66.43;99463.44;4842827;29;20028;-41
2023/09/24 03:55:47;;;;;;;13.07;6.05;;;;;;;21.83;67.00;99464.63;4842522;29;20108;-44
2023/09/24 03:58:13;;;;;;;11.63;6.10;;;;;;;21.88;66.47;99457.56;4842887;29;20112;-42
2023/09/24 04:00:39;;;;;;;8.85;6.03;;;;;;;21.72;67.32;99456.88;4842452;29;20129;-40
2023/09/24 04:03:04;;;;;;;12.18;5.95;;;;;;;21.83;66.89;99474.66;4842708;29;20037;-40
2023/09/24 04:05:33;;;;;;;9.65;6.32;;;;;;;21.62;67.12;99460.50;4843165;29;20075;-38
2023/09/24 04:08:00;;;;;;;11.77;5.82;;;;;;;21.82;66.86;99471.16;4843331;29;20062;-40
2023/09/24 04:10:27;;;;;;;12.35;5.60;;;;;;;21.82;66.67;99473.06;4842763;29;20485;-40
2023/09/24 04:12:52;;;;;;;9.77;5.38;;;;;;;21.89;66.35;99472.72;4843124;29;20030;-41
2023/09/24 04:15:21;;;;;;;12.60;6.20;;;;;;;21.90;66.28;99471.63;4843035;29;20062;-39
2023/09/24 04:17:48;;;;;;;12.52;5.97;;;;;;;21.79;66.44;99473.63;4843335;29;20095;-40
2023/09/24 04:20:15;;;;;;;8.50;5.78;;;;;;;21.79;66.28;99471.72;4842728;29;20033;-40
2023/09/24 04:22:44;;;;;;;8.32;5.90;;;;;;;21.74;67.10;99470.94;4841839;29;20030;-41
2023/09/24 04:25:20;;;;;;;9.25;5.57;;;;;;;21.85;66.46;99473.28;4842658;29;20101;-41
2023/09/24 04:27:45;;;;;;;8.93;5.85;;;;;;;22.00;65.92;99474.25;4842038;29;20484;-40
2023/09/24 04:30:15;;;;;;;11.00;5.88;;;;;;;21.83;66.55;99477.38;4842357;29;20033;-40
2023/09/24 04:32:51;;;;;;;9.98;6.32;;;;;;;21.57;67.66;99491.13;4842811;29;20122;-42
2023/09/24 04:35:20;;;;;;;8.80;5.78;;;;;;;21.79;66.85;99489.88;4842181;29;20116;-42
2023/09/24 04:37:49;;;;;;;7.68;5.75;;;;;;;21.92;66.64;99497.34;4842332;29;20040;-41
2023/09/24 04:40:15;;;;;;;10.05;5.50;;;;;;;22.12;65.54;99496.31;4842448;29;20038;-42
2023/09/24 04:42:42;;;;;;;11.68;5.90;;;;;;;22.17;65.28;99500.91;4842278;29;20036;-41
2023/09/24 04:45:11;;;;;;;13.18;7.55;;;;;;;22.10;65.67;99500.44;4842127;29;20030;-42
2023/09/24 04:47:37;;;;;;;12.88;5.95;;;;;;;22.10;65.23;99505.84;4841736;29;20502;-43
2023/09/24 04:50:03;;;;;;;10.70;5.68;;;;;;;22.21;65.36;99515.50;4850886;29;20455;-41
2023/09/24 04:52:29;;;;;;;13.32;8.25;;;;;;;22.48;64.05;99514.97;4845589;29;20066;-41
2023/09/24 04:54:54;;;;;;;10.05;6.28;;;;;;;22.88;62.78;99514.78;4850064;29;20504;-43
2023/09/24 04:57:20;;;;;;;9.77;5.93;;;;;;;22.69;63.21;99518.25;4849728;29;20074;-42
2023/09/24 04:59:45;;;;;;;11.88;6.20;;;;;;;22.78;62.49;99527.38;4851418;29;20124;-44
2023/09/24 05:02:11;;;;;;;9.15;5.38;;;;;;;22.98;62.36;99528.22;4851737;29;20029;-41
2023/09/24 05:04:36;;;;;;;11.35;5.68;;;;;;;23.23;61.56;99535.25;4849159;29;20021;-42
2023/09/24 05:07:02;;;;;;;8.93;5.22;;;;;;;23.36;60.81;99536.41;4851493;29;20037;-42
2023/09/24 05:09:28;;;;;;;10.88;5.65;;;;;;;23.45;60.87;99537.38;4849879;29;20030;-43
2023/09/24 05:11:54;;;;;;;9.02;5.68;;;;;;;23.62;60.28;99537.66;4850376;29;20061;-42
2023/09/24 05:14:20;;;;;;;10.77;5.78;;;;;;;23.83;59.38;99545.53;4851817;29;20391;-42
2023/09/24 05:16:46;;;;;;;10.57;5.50;;;;;;;23.85;59.26;99543.31;4851534;29;20045;-42
2023/09/24 05:19:12;;;;;;;11.27;5.70;;;;;;;23.85;58.99;99547.94;4850808;29;20380;-43
2023/09/24 05:21:37;;;;;;;9.43;5.60;;;;;;;23.91;58.93;99536.72;4851329;29;20033;-42
2023/09/24 05:24:03;;;;;;;10.25;5.65;;;;;;;24.16;58.10;99534.63;4849466;29;20026;-44
2023/09/24 05:26:29;;;;;;;9.48;5.40;;;;;;;23.96;58.87;99543.97;4850985;29;20045;-40
2023/09/24 05:28:54;;;;;;;8.38;5.43;;;;;;;23.98;59.02;99544.47;4850565;29;20086;-40
2023/09/24 05:31:21;;;;;;;11.13;5.25;;;;;;;23.87;59.16;99551.16;4848401;29;20033;-39
2023/09/24 05:33:47;;;;;;;9.65;5.72;;;;;;;23.93;59.18;99545.38;4848496;29;20021;-41
2023/09/24 05:36:12;;;;;;;12.45;5.97;;;;;;;24.09;58.40;99543.19;4852542;29;20081;-40
2023/09/24 05:38:38;;;;;;;9.75;5.88;;;;;;;24.30;58.20;99546.34;4850072;29;20052;-42
2023/09/24 05:41:05;;;;;;;13.95;5.82;;;;;;;24.08;58.04;99554.34;4850440;29;20463;-43
2023/09/24 05:43:30;;;;;;;7.15;5.13;;;;;;;24.38;57.42;99553.00;4849904;29;20028;-43
2023/09/24 05:45:56;;;;;;;11.55;5.72;;;;;;;24.72;56.38;99549.16;4849874;29;20025;-42
2023/09/24 05:48:21;;;;;;;9.45;5.50;;;;;;;25.06;55.58;99547.91;4845330;29;20182;-42
2023/09/24 05:50:47;;;;;;;9.07;5.47;;;;;;;24.69;56.49;99544.31;4848948;29;20048;-44
2023/09/24 05:53:13;;;;;;;10.95;6.20;;;;;;;24.80;55.60;99553.06;4839655;29;20125;-43
2023/09/24 05:55:39;;;;;;;9.43;5.47;;;;;;;25.06;55.10;99558.81;4839660;29;20470;-41
2023/09/24 05:58:07;;;;;;;9.30;5.50;;;;;;;25.53;53.73;99552.06;4839438;29;20026;-42
2023/09/24 06:00:37;;;;;;;6.90;5.20;;;;;;;25.80;53.02;99557.72;4839368;29;20527;-40
2023/09/24 06:03:03;;;;;;;10.75;5.60;;;;;;;25.83;53.03;99557.91;4853306;29;20173;-41
2023/09/24 06:05:28;;;;;;;11.30;5.43;;;;;;;25.70;53.45;99567.75;4857756;29;20108;-41
2023/09/24 06:07:55;;;;;;;12.50;5.57;;;;;;;25.62;53.29;99552.13;4857440;29;20500;-41
2023/09/24 06:10:21;;;;;;;8.60;5.18;;;;;;;25.47;53.88;99556.00;4858049;29;20491;-43
2023/09/24 06:12:47;;;;;;;11.70;4.93;;;;;;;26.20;52.28;99552.38;4858043;29;20029;-41
2023/09/24 06:15:13;;;;;;;11.68;5.50;;;;;;;25.98;52.81;99556.75;4855396;29;20078;-42
2023/09/24 06:17:39;;;;;;;10.23;5.20;;;;;;;26.19;52.45;99567.94;4857635;29;20033;-42
2023/09/24 06:20:06;;;;;;;9.65;5.18;;;;;;;26.86;50.42;99556.06;4857786;29;20108;-46
2023/09/24 06:22:31;;;;;;;7.72;5.03;;;;;;;26.90;50.15;99556.25;4857792;29;20037;-42
2023/09/24 06:24:57;;;;;;;10.00;5.45;;;;;;;26.68;50.66;99554.41;4857697;29;20025;-43
2023/09/24 06:27:23;;;;;;;12.43;5.60;;;;;;;27.06;50.41;99553.88;4857793;29;20021;-45
2023/09/24 06:29:48;;;;;;;9.10;4.88;;;;;;;27.07;49.84;99561.78;4857514;29;20029;-46
2023/09/24 06:32:14;;;;;;;8.38;5.00;;;;;;;27.39;49.00;99567.13;4850317;29;20022;-43
2023/09/24 06:34:40;;;;;;;8.25;5.15;;;;;;;27.38;48.50;99570.97;4847003;29;20068;-43
2023/09/24 06:37:05;;;;;;;7.18;5.10;;;;;;;27.63;48.48;99567.47;4843524;29;20026;-42
2023/09/24 06:39:34;;;;;;;10.57;4.90;;;;;;;27.59;48.44;99571.97;4847594;29;20026;-44
2023/09/24 06:42:02;;;;;;;9.47;4.77;;;;;;;27.69;48.15;99571.63;4857229;29;20057;-41
2023/09/24 06:44:28;;;;;;;9.88;5.15;;;;;;;27.88;47.32;99568.59;4841391;29;20586;-43
2023/09/24 06:46:54;;;;;;;11.27;5.60;;;;;;;27.66;48.20;99568.75;4843464;29;20041;-43
2023/09/24 06:49:19;;;;;;;9.77;4.78;;;;;;;27.18;49.04;99570.44;4843171;29;20081;-42
2023/09/24 06:51:45;;;;;;;9.13;4.60;;;;;;;27.28;48.71;99564.72;4843331;29;20033;-45
2023/09/24 06:54:11;;;;;;;10.05;4.80;;;;;;;26.85;49.48;99568.13;4842327;29;20108;-45
2023/09/24 06:56:36;;;;;;;9.80;5.00;;;;;;;26.29;51.09;99558.69;4843140;29;20049;-45
2023/09/24 06:59:08;;;;;;;8.15;4.72;;;;;;;26.79;49.66;99561.22;4843448;29;20075;-44
2023/09/24 07:01:34;;;;;;;9.68;4.93;;;;;;;26.64;50.62;99550.72;4842483;29;20324;-41
2023/09/24 07:03:59;;;;;;;8.10;4.63;;;;;;;27.17;49.82;99546.19;4841992;29;20040;-42
2023/09/24 07:06:24;;;;;;;8.98;5.18;;;;;;;27.61;48.67;99550.59;4841853;29;20034;-42
2023/09/24 07:08:50;;;;;;;15.70;11.27;;;;;;;27.92;47.53;99559.78;4842169;29;20374;-42
2023/09/24 07:11:26;;;;;;;12.10;4.88;;;;;;;28.32;45.76;99570.47;4852811;29;20040;-42
2023/09/24 07:13:52;;;;;;;12.25;4.95;;;;;;;27.74;47.00;99558.94;4847405;29;20086;-45
2023/09/24 07:16:23;;;;;;;6.60;4.43;;;;;;;27.80;47.40;99574.06;4851427;29;20046;-42
2023/09/24 07:18:50;;;;;;;8.50;4.57;;;;;;;28.00;47.34;99559.75;4855112;29;20580;-43
2023/09/24 07:21:17;;;;;;;9.07;4.22;;;;;;;27.86;46.90;99568.09;4859192;29;20069;-41
2023/09/24 07:23:42;;;;;;;7.75;4.47;;;;;;;28.04;46.78;99566.16;4855637;29;20109;-43
2023/09/24 07:26:08;;;;;;;11.43;4.55;;;;;;;28.31;46.04;99574.31;4860066;29;20120;-44
2023/09/24 07:28:35;;;;;;;12.45;4.95;;;;;;;28.96;44.50;99562.16;4859060;29;20025;-40
2023/09/24 07:31:00;;;;;;;9.80;4.78;;;;;;;29.17;43.57;99562.22;4856571;29;20064;-40
2023/09/24 07:33:26;;;;;;;23.25;14.50;;;;;;;29.16;43.58;99563.34;4855131;29;20049;-42
2023/09/24 07:35:52;;;;;;;7.80;4.95;;;;;;;29.12;43.66;99565.13;4858617;29;20041;-45
2023/09/24 07:38:18;;;;;;;8.55;4.60;;;;;;;29.40;42.73;99557.22;4853058;29;20033;-41
2023/09/24 07:40:44;;;;;;;7.90;4.43;;;;;;;29.52;43.15;99561.16;4849407;29;20491;-41
2023/09/24 07:43:10;;;;;;;7.85;4.53;;;;;;;29.50;42.61;99552.47;4847059;29;20030;-42
2023/09/24 07:45:36;;;;;;;6.43;4.72;;;;;;;29.59;43.19;99564.19;4853654;29;20076;-43
2023/09/24 07:48:08;;;;;;;8.57;4.78;;;;;;;29.94;42.44;99561.16;4848967;29;20567;-41
2023/09/24 07:50:34;;;;;;;7.95;4.65;;;;;;;30.09;41.31;99562.44;4858621;29;20032;-43
2023/09/24 07:52:59;;;;;;;13.07;5.18;;;;;;;30.34;39.83;99552.34;4859451;29;20029;-42
2023/09/24 07:55:24;;;;;;;7.95;4.63;;;;;;;30.06;40.70;99547.44;4859690;29;20037;-42
2023/09/24 07:57:51;;;;;;;8.60;4.40;;;;;;;29.87;40.27;99550.72;4859449;29;20153;-43
2023/09/24 08:00:16;;;;;;;9.57;4.78;;;;;;;29.29;40.92;99542.31;4860415;29;20050;-42
2023/09/24 08:02:44;;;;;;;9.75;4.85;;;;;;;28.89;42.34;99550.94;4860782;29;20021;-41
2023/09/24 08:05:09;;;;;;;8.20;4.80;;;;;;;29.02;41.54;99544.41;4859596;29;20025;-43
2023/09/24 08:07:36;;;;;;;20.98;12.88;;;;;;;29.08;41.34;99541.47;4860592;29;20026;-41
2023/09/24 08:10:01;;;;;;;8.25;5.60;;;;;;;29.59;40.54;99545.00;4859721;29;20081;-45
2023/09/24 08:12:27;;;;;;;10.95;4.47;;;;;;;29.43;40.72;99542.88;4860027;29;20112;-41
2023/09/24 08:14:52;;;;;;;7.80;4.82;;;;;;;29.48;40.70;99550.06;4859168;29;20033;-39
2023/09/24 08:17:18;;;;;;;7.65;4.97;;;;;;;29.60;40.64;99539.16;4859404;29;20033;-43
2023/09/24 08:19:43;;;;;;;8.70;4.60;;;;;;;29.95;40.08;99540.78;4853469;29;20029;-44
2023/09/24 08:22:09;;;;;;;8.98;4.45;;;;;;;29.63;40.27;99537.69;4858183;29;20030;-42
2023/09/24 08:24:38;;;;;;;7.68;4.28;;;;;;;29.90;40.20;99533.59;4856099;29;20056;-42
2023/09/24 08:27:03;;;;;;;;;;;;;;;30.06;39.38;99531.00;4851592;29;20053;-40
2023/09/24 08:29:28;;;;;;;9.73;5.38;;;;;;;29.90;40.30;99533.59;4860625;29;20011;-45
2023/09/24 08:31:54;;;;;;;9.57;5.07;;;;;;;29.63;40.32;99524.78;4859907;29;20029;-42
2023/09/24 08:34:19;;;;;;;14.55;9.65;;;;;;;29.47;40.87;99533.97;4860185;29;20049;-43
2023/09/24 08:36:45;;;;;;;9.10;5.95;;;;;;;29.69;40.94;99532.81;4858068;29;20029;-43
2023/09/24 08:39:11;;;;;;;9.63;4.57;;;;;;;29.94;40.36;99533.72;4857332;29;20028;-45
2023/09/24 08:41:43;;;;;;;9.25;5.10;;;;;;;30.45;39.75;99523.31;4857962;29;20018;-44
2023/09/24 08:44:13;;;;;;;10.48;5.03;;;;;;;31.00;38.65;99523.91;4857918;29;20029;-43
2023/09/24 08:46:40;;;;;;;10.10;4.65;;;;;;;30.87;38.64;99525.81;4858702;29;20030;-43
2023/09/24 08:49:06;;;;;;;7.88;4.68;;;;;;;30.97;38.96;99521.84;4858152;29;20057;-42
2023/09/24 08:51:33;;;;;;;8.05;4.75;;;;;;;30.72;38.93;99529.28;4857385;29;20073;-43
2023/09/24 08:54:00;;;;;;;9.20;5.03;;;;;;;30.71;38.73;99527.66;4858786;29;20029;-43
2023/09/24 08:56:26;;;;;;;11.05;5.00;;;;;;;30.88;38.19;99521.94;4859214;29;20029;-41
2023/09/24 08:58:53;;;;;;;10.23;4.60;;;;;;;31.53;37.32;99518.41;4858601;29;20553;-40
2023/09/24 09:01:18;;;;;;;10.38;4.88;;;;;;;32.04;36.49;99523.31;4859007;29;20046;-43
2023/09/24 09:03:44;;;;;;;9.93;4.82;;;;;;;32.48;35.88;99515.81;4859429;29;20083;-44
2023/09/24 09:06:09;;;;;;;10.68;5.05;;;;;;;32.43;36.12;99512.53;4859245;29;20522;-43
2023/09/24 09:08:51;;;;;;;9.55;4.28;;;;;;;32.96;35.75;99510.25;4858385;29;20056;-42
2023/09/24 09:11:19;;;;;;;10.63;4.40;;;;;;;33.02;34.82;99519.81;4859414;29;20029;-43
2023/09/24 09:13:48;;;;;;;10.52;4.93;;;;;;;32.53;34.89;99517.47;4859327;29;20077;-40
2023/09/24 09:16:16;;;;;;;13.25;4.50;;;;;;;32.20;36.29;99502.13;4858930;29;20033;-44
2023/09/24 09:18:42;;;;;;;10.27;4.50;;;;;;;31.80;36.47;99500.28;4859018;29;20037;-43
2023/09/24 09:21:07;;;;;;;10.85;4.43;;;;;;;31.90;36.67;99496.22;4859015;29;20085;-42
2023/09/24 09:23:43;;;;;;;8.55;4.88;;;;;;;32.12;35.58;99494.84;4859223;29;20030;-43
2023/09/24 09:26:09;;;;;;;8.35;4.50;;;;;;;32.12;36.10;99495.66;4858966;29;20033;-43
2023/09/24 09:28:34;;;;;;;11.10;4.38;;;;;;;32.33;35.61;99489.09;4859044;29;20482;-44
2023/09/24 09:31:00;;;;;;;8.75;4.18;;;;;;;32.63;35.19;99497.69;4858708;29;20030;-41
2023/09/24 09:33:31;;;;;;;6.53;4.22;;;;;;;32.85;34.88;99492.66;4846790;29;20519;-46
2023/09/24 09:35:57;;;;;;;10.00;4.47;;;;;;;33.10;34.86;99494.03;4852614;29;20432;-44
2023/09/24 09:38:24;;;;;;;8.95;4.40;;;;;;;33.16;34.66;99491.78;4858536;29;20030;-41
2023/09/24 09:40:55;;;;;;;9.45;4.50;;;;;;;33.29;33.72;99484.19;4854180;29;20095;-43
2023/09/24 09:43:29;;;;;;;11.45;4.63;;;;;;;33.00;34.21;99483.56;4849641;29;20444;-41
2023/09/24 09:45:57;;;;;;;15.93;4.57;;;;;;;32.44;35.00;99492.88;4848758;29;20064;-43
2023/09/24 09:48:33;;;;;;;11.23;5.05;;;;;;;32.48;35.73;99495.72;4847903;29;20392;-43
2023/09/24 09:51:07;;;;;;;7.63;4.18;;;;;;;32.56;35.67;99478.22;4848702;29;20025;-42
2023/09/24 09:53:37;;;;;;;8.68;4.32;;;;;;;32.81;35.39;99478.03;4848606;29;20026;-41
2023/09/24 09:56:06;;;;;;;9.27;4.22;;;;;;;33.14;35.08;99482.28;4848474;29;20068;-46
2023/09/24 09:58:36;;;;;;;7.70;3.95;;;;;;;32.57;35.01;99476.28;4849246;29;20029;-41
2023/09/24 10:01:03;;;;;;;8.10;4.43;;;;;;;32.18;35.12;99482.44;4848171;29;20073;-44
2023/09/24 10:03:32;;;;;;;9.88;4.22;;;;;;;32.30;35.20;99476.81;4847092;29;20026;-43
2023/09/24 10:06:00;;;;;;;9.40;4.30;;;;;;;31.97;35.58;99474.41;4848354;29;20130;-40
2023/09/24 10:08:43;;;;;;;8.82;4.50;;;;;;;32.31;35.60;99478.44;4850615;29;20037;-44
2023/09/24 10:11:28;;;;;;;10.70;4.63;;;;;;;31.78;34.85;99475.09;4843184;29;20411;-42
2023/09/24 10:13:53;;;;;;;18.92;10.50;;;;;;;31.92;35.29;99463.66;4845441;29;20034;-42
2023/09/24 10:16:39;;;;;;;11.80;5.00;;;;;;;32.48;35.08;99465.44;4856423;29;20022;-41
2023/09/24 10:19:13;;;;;;;13.50;4.60;;;;;;;32.97;33.79;99464.19;4851816;29;20479;-44
2023/09/24 10:21:44;;;;;;;12.48;4.15;;;;;;;33.21;34.07;99443.88;4864286;29;20109;-42
2023/09/24 10:24:09;;;;;;;11.10;4.57;;;;;;;33.30;33.96;99453.50;4864174;29;20445;-44
2023/09/24 10:27:07;;;;;;;10.75;4.60;;;;;;;33.33;33.14;99456.69;4864584;29;20029;-43
2023/09/24 10:29:45;;;;;;;11.43;4.47;;;;;;;33.18;33.67;99445.38;4864473;29;20103;-44
2023/09/24 10:32:17;;;;;;;11.13;4.20;;;;;;;33.13;33.94;99439.34;4859582;29;20383;-43
2023/09/24 10:34:55;;;;;;;11.15;4.50;;;;;;;33.11;33.60;99436.97;4845634;29;20018;-43
2023/09/24 10:37:21;;;;;;;8.00;4.05;;;;;;;33.56;33.66;99440.19;4845325;29;20037;-48
2023/09/24 10:40:04;;;;;;;8.40;4.35;;;;;;;33.73;33.25;99428.69;4845503;29;20022;-44
2023/09/24 10:42:39;;;;;;;10.05;4.13;;;;;;;33.46;32.61;99434.09;4845814;29;20052;-46
2023/09/24 10:45:07;;;;;;;11.80;4.53;;;;;;;32.96;33.60;99427.59;4845556;29;20043;-40
2023/09/24 10:47:44;;;;;;;9.82;4.38;;;;;;;32.76;34.02;99424.00;4845627;29;20029;-41
2023/09/24 10:50:10;;;;;;;11.43;4.63;;;;;;;32.69;34.04;99430.16;4845270;29;20049;-46
2023/09/24 10:52:56;;;;;;;11.25;4.60;;;;;;;32.95;34.04;99414.16;4853277;29;20096;-45
2023/09/24 10:55:29;;;;;;;12.02;4.25;;;;;;;33.02;34.49;99411.56;4864162;29;20029;-44
2023/09/24 10:57:57;;;;;;;9.23;4.15;;;;;;;33.11;34.06;99412.16;4864261;29;20499;-43
2023/09/24 11:00:25;;;;;;;12.85;4.28;;;;;;;32.99;34.03;99409.50;4864104;29;20049;-43
2023/09/24 11:03:13;;;;;;;10.02;4.15;;;;;;;32.67;33.95;99404.13;4862991;29;20026;-43
2023/09/24 11:05:47;;;;;;;11.82;4.47;;;;;;;32.94;33.46;99396.84;4860470;29;20044;-44
2023/09/24 11:08:14;;;;;;;12.02;4.07;;;;;;;33.04;33.60;99399.00;4845516;29;20140;-44
2023/09/24 11:10:40;;;;;;;7.88;4.13;;;;;;;33.37;33.43;99392.16;4845844;29;20026;-41
2023/09/24 11:13:06;;;;;;;13.50;4.70;;;;;;;33.02;33.38;99389.50;4863188;29;20037;-43
2023/09/24 11:15:40;;;;;;;7.38;3.78;;;;;;;32.79;33.68;99384.72;4863678;29;20037;-42
2023/09/24 11:18:06;;;;;;;9.73;4.20;;;;;;;32.73;34.04;99386.97;4862596;29;20554;-40
2023/09/24 11:20:33;;;;;;;14.27;5.03;;;;;;;33.05;33.53;99377.75;4863674;29;20067;-43
2023/09/24 11:23:11;;;;;;;8.30;4.10;;;;;;;33.36;33.82;99381.50;4861619;29;20026;-43
2023/09/24 11:25:46;;;;;;;11.80;4.40;;;;;;;33.32;33.26;99378.72;4854946;29;20025;-47
2023/09/24 11:28:12;;;;;;;13.25;4.78;;;;;;;33.25;33.01;99373.06;4852088;29;20045;-43
2023/09/24 11:30:48;;;;;;;12.15;4.03;;;;;;;33.26;33.23;99364.41;4853605;29;20025;-44
2023/09/24 11:33:16;;;;;;;11.27;4.32;;;;;;;33.20;32.99;99354.84;4853657;29;20045;-42